Time;durP1;ratioP1;P1;durP2;ratioP2;P2;SDS_P1;SDS_P2;PMS_P1;PMS_P2;Temp;Humidity;BMP_temperature;BMP_pressure;BME280_temperature;BME280_humidity;BME280_pressure;Samples;Min_cycle;Max_cycle;Signal;HPM_P1;HPM_P2
2021/05/04 00:00:11;;;;;;;35.65;21.55;;;205.70;2252.80;;;;;;5034492;28;20036;-57
2021/05/04 00:02:36;;;;;;;32.58;19.60;;;205.70;2252.80;;;;;;5034557;28;20021;-58
2021/05/04 00:05:03;;;;;;;28.73;19.33;;;205.70;2252.80;;;;;;5034396;28;20232;-57
2021/05/04 00:07:29;;;;;;;31.73;20.25;;;205.70;2252.80;;;;;;5032775;28;20075;-59
2021/05/04 00:09:55;;;;;;;31.27;20.45;;;205.70;2252.80;;;;;;5034548;28;20092;-58
2021/05/04 00:12:21;;;;;;;29.63;19.85;;;205.70;2252.80;;;;;;5034259;28;20057;-57
2021/05/04 00:14:47;;;;;;;28.70;19.70;;;205.60;2252.80;;;;;;5034412;28;20029;-57
2021/05/04 00:17:13;;;;;;;28.83;18.50;;;205.60;2252.80;;;;;;5033935;28;20072;-59
2021/05/04 00:19:39;;;;;;;29.13;18.33;;;205.60;2252.80;;;;;;5034562;28;20045;-61
2021/05/04 00:22:06;;;;;;;26.92;17.45;;;205.50;2252.80;;;;;;5033617;28;20029;-57
2021/05/04 00:24:32;;;;;;;24.20;15.88;;;205.50;2252.80;;;;;;5033955;28;20025;-57
2021/05/04 00:26:57;;;;;;;27.25;17.70;;;205.50;2252.80;;;;;;5034778;28;20163;-58
2021/05/04 00:29:23;;;;;;;25.35;17.30;;;205.40;2252.80;;;;;;5034031;28;20032;-57
2021/05/04 00:31:49;;;;;;;27.77;18.25;;;205.40;2252.80;;;;;;5035654;28;20489;-58
2021/05/04 00:34:14;;;;;;;25.60;18.10;;;205.40;2252.80;;;;;;5035735;28;20096;-58
2021/05/04 00:36:40;;;;;;;28.35;19.83;;;205.40;2252.80;;;;;;5035098;28;20021;-58
2021/05/04 00:39:06;;;;;;;25.42;18.02;;;205.30;2252.80;;;;;;5035625;28;20158;-58
2021/05/04 00:41:32;;;;;;;25.90;17.77;;;205.30;2252.80;;;;;;5034737;28;20475;-58
2021/05/04 00:43:57;;;;;;;26.45;17.73;;;205.20;2252.80;;;;;;5034793;28;20033;-59
2021/05/04 00:46:23;;;;;;;28.00;18.40;;;205.20;2252.80;;;;;;5035160;28;20052;-58
2021/05/04 00:48:49;;;;;;;31.15;18.02;;;205.20;2252.80;;;;;;5033780;28;20064;-58
2021/05/04 00:51:14;;;;;;;27.92;18.52;;;205.20;2252.80;;;;;;5033528;28;20032;-58
2021/05/04 00:53:41;;;;;;;28.45;18.30;;;205.20;2252.80;;;;;;5034271;28;20053;-58
2021/05/04 00:56:08;;;;;;;26.17;17.92;;;205.20;2252.80;;;;;;5033454;28;20017;-60
2021/05/04 00:58:35;;;;;;;29.42;17.95;;;205.20;2252.80;;;;;;5032613;28;20068;-60
2021/05/04 01:01:02;;;;;;;26.98;17.65;;;205.20;2252.80;;;;;;5033916;28;20041;-58
2021/05/04 01:03:28;;;;;;;28.42;17.33;;;205.20;2252.80;;;;;;5033570;28;20027;-58
2021/05/04 01:05:54;;;;;;;26.00;16.95;;;205.10;2252.80;;;;;;5032972;28;20026;-58
2021/05/04 01:08:20;;;;;;;32.10;19.92;;;205.10;2252.80;;;;;;5032732;28;20025;-58
2021/05/04 01:10:45;;;;;;;29.67;18.40;;;204.80;2252.80;;;;;;5032742;28;20387;-58
2021/05/04 01:13:11;;;;;;;28.50;18.30;;;180.10;2252.80;;;;;;5033383;28;20014;-58
2021/05/04 01:15:39;;;;;;;26.50;16.77;;;180.00;2252.80;;;;;;5033670;28;20365;-58
2021/05/04 01:18:05;;;;;;;23.95;15.43;;;179.90;2252.80;;;;;;5034432;28;20083;-58
2021/05/04 01:20:32;;;;;;;23.27;14.95;;;179.90;2252.80;;;;;;5032791;28;20448;-57
2021/05/04 01:22:57;;;;;;;20.42;13.40;;;179.90;2252.80;;;;;;5033688;28;20025;-61
2021/05/04 01:25:23;;;;;;;18.75;12.90;;;179.80;2252.80;;;;;;5034777;28;20396;-59
2021/05/04 01:27:49;;;;;;;18.98;13.40;;;179.80;2252.80;;;;;;5030574;28;20028;-62
2021/05/04 01:30:15;;;;;;;19.73;13.43;;;179.80;2252.80;;;;;;5033966;28;20041;-59
2021/05/04 01:32:41;;;;;;;20.05;13.30;;;179.80;2252.80;;;;;;5034524;28;20032;-61
2021/05/04 01:35:08;;;;;;;20.65;13.32;;;179.80;2252.80;;;;;;5032605;28;20033;-61
2021/05/04 01:37:36;;;;;;;19.45;13.40;;;179.80;2252.80;;;;;;5034179;28;20037;-63
2021/05/04 01:40:02;;;;;;;19.63;12.45;;;179.80;2252.80;;;;;;5034342;28;20471;-61
2021/05/04 01:42:28;;;;;;;18.58;11.73;;;179.80;2252.80;;;;;;5027469;28;20043;-62
2021/05/04 01:44:53;;;;;;;15.82;11.38;;;179.80;2252.80;;;;;;5033379;28;20427;-59
2021/05/04 01:47:19;;;;;;;16.58;10.90;;;179.80;2252.80;;;;;;5034088;28;20430;-60
2021/05/04 01:49:45;;;;;;;16.40;11.40;;;179.80;2252.80;;;;;;5033744;28;20029;-63
2021/05/04 01:52:11;;;;;;;15.80;11.32;;;179.70;2252.80;;;;;;5034240;28;20029;-60
2021/05/04 01:54:38;;;;;;;19.17;11.07;;;179.70;2252.80;;;;;;5034037;28;20097;-62
2021/05/04 01:57:04;;;;;;;17.98;12.02;;;179.70;2252.80;;;;;;5034098;28;20041;-61
2021/05/04 01:59:30;;;;;;;20.25;13.05;;;179.50;2252.80;;;;;;5031120;28;20079;-59
2021/05/04 02:01:57;;;;;;;17.70;12.13;;;179.50;2252.80;;;;;;5031915;28;20022;-63
2021/05/04 02:04:24;;;;;;;16.42;11.95;;;179.60;2252.80;;;;;;5028371;28;20483;-58
2021/05/04 02:06:51;;;;;;;20.73;12.13;;;179.60;2252.80;;;;;;5030901;28;20025;-63
2021/05/04 02:09:17;;;;;;;18.02;12.38;;;179.60;2252.80;;;;;;5030852;28;20018;-62
2021/05/04 02:11:43;;;;;;;21.05;12.65;;;179.60;2252.80;;;;;;5033383;28;20029;-60
2021/05/04 02:14:09;;;;;;;22.00;16.70;;;179.50;2252.80;;;;;;5033683;28;20017;-59
2021/05/04 02:16:36;;;;;;;20.17;13.48;;;179.60;2252.80;;;;;;5033245;28;20021;-63
2021/05/04 02:19:02;;;;;;;15.20;11.30;;;179.60;2252.80;;;;;;5034105;28;20033;-62
2021/05/04 02:21:28;;;;;;;16.35;11.70;;;179.60;2252.80;;;;;;5032590;28;20029;-60
2021/05/04 02:23:54;;;;;;;16.85;12.45;;;179.60;2252.80;;;;;;5033871;28;20502;-63
2021/05/04 02:26:20;;;;;;;11.38;8.57;;;179.60;2252.80;;;;;;5025176;28;20467;-61
2021/05/04 02:28:46;;;;;;;10.63;7.65;;;179.60;2252.80;;;;;;5031641;28;20104;-59
2021/05/04 02:31:12;;;;;;;10.55;7.88;;;179.50;2252.80;;;;;;5019384;28;20050;-64
2021/05/04 02:33:40;;;;;;;10.63;8.07;;;179.50;2252.80;;;;;;5014289;28;20076;-63
2021/05/04 02:36:07;;;;;;;10.98;7.72;;;179.40;2252.80;;;;;;5014277;28;20017;-62
2021/05/04 02:38:34;;;;;;;11.60;8.02;;;179.30;2252.80;;;;;;5013892;28;20551;-63
2021/05/04 02:41:00;;;;;;;12.93;8.15;;;154.50;2252.80;;;;;;5017161;28;20020;-59
2021/05/04 02:43:26;;;;;;;12.90;8.52;;;154.40;2252.80;;;;;;5033514;28;20459;-61
2021/05/04 02:45:52;;;;;;;11.77;8.48;;;154.40;2252.80;;;;;;5033812;28;20096;-62
2021/05/04 02:48:18;;;;;;;13.55;8.75;;;154.40;2252.80;;;;;;5033696;28;20026;-59
2021/05/04 02:50:44;;;;;;;15.35;10.00;;;154.40;2252.80;;;;;;5027552;28;20077;-58
2021/05/04 02:53:10;;;;;;;15.55;9.57;;;154.40;2252.80;;;;;;5013814;28;20026;-58
2021/05/04 02:55:36;;;;;;;15.80;10.00;;;154.40;2252.80;;;;;;5014489;28;20045;-58
2021/05/04 02:58:02;;;;;;;15.25;10.70;;;154.40;2252.80;;;;;;5030866;28;20459;-58
2021/05/04 03:00:28;;;;;;;17.38;11.05;;;154.40;2252.80;;;;;;5023714;28;20526;-63
2021/05/04 03:02:54;;;;;;;23.85;13.48;;;154.40;2252.80;;;;;;5013095;28;20041;-59
2021/05/04 03:05:20;;;;;;;18.42;12.00;;;154.40;2252.80;;;;;;5013880;28;20029;-63
2021/05/04 03:07:45;;;;;;;21.65;13.82;;;154.40;2252.80;;;;;;5013631;28;20053;-58
2021/05/04 03:10:12;;;;;;;17.10;11.32;;;154.40;2252.80;;;;;;5021141;28;20041;-58
2021/05/04 03:12:38;;;;;;;23.40;14.07;;;154.50;2252.80;;;;;;5033335;28;20101;-58
2021/05/04 03:15:04;;;;;;;23.77;13.57;;;154.50;2252.80;;;;;;5024656;28;20026;-58
2021/05/04 03:17:30;;;;;;;20.77;13.15;;;154.50;2252.80;;;;;;5029301;28;20387;-58
2021/05/04 03:19:56;;;;;;;21.95;13.95;;;154.50;2252.80;;;;;;5033372;28;20046;-58
2021/05/04 03:22:22;;;;;;;17.85;11.45;;;154.50;2252.80;;;;;;5033356;28;20075;-57
2021/05/04 03:24:48;;;;;;;18.80;12.00;;;179.20;2252.80;;;;;;5048553;28;20556;-58
2021/05/04 03:27:14;;;;;;;17.27;11.32;;;179.20;2252.80;;;;;;5032884;28;20025;-58
2021/05/04 03:29:40;;;;;;;21.70;12.80;;;179.20;2252.80;;;;;;5026441;28;20400;-59
2021/05/04 03:32:05;;;;;;;19.83;12.15;;;179.20;2252.80;;;;;;5014172;28;20022;-61
2021/05/04 03:34:31;;;;;;;22.17;14.05;;;179.20;2252.80;;;;;;5017660;28;20026;-59
2021/05/04 03:36:57;;;;;;;22.40;14.68;;;179.30;2252.80;;;;;;5029081;28;20029;-59
2021/05/04 03:39:23;;;;;;;22.10;14.07;;;179.30;2252.80;;;;;;5037081;28;20379;-58
2021/05/04 03:41:49;;;;;;;20.33;13.48;;;179.30;2252.80;;;;;;5037169;28;20033;-59
2021/05/04 03:44:14;;;;;;;22.95;13.32;;;179.30;2252.80;;;;;;5036631;28;20029;-58
2021/05/04 03:46:40;;;;;;;18.55;12.38;;;179.40;2252.80;;;;;;5036914;28;20026;-59
2021/05/04 03:49:06;;;;;;;20.02;13.13;;;179.40;2252.80;;;;;;5036365;28;20025;-59
2021/05/04 03:51:32;;;;;;;20.27;12.85;;;179.40;2252.80;;;;;;5037079;28;20463;-60
2021/05/04 03:53:58;;;;;;;20.55;13.48;;;179.50;2252.80;;;;;;5036610;28;20033;-58
2021/05/04 03:56:24;;;;;;;21.85;13.55;;;179.50;2252.80;;;;;;5036877;28;20026;-59
2021/05/04 03:58:49;;;;;;;19.58;13.20;;;179.60;2252.80;;;;;;5034119;28;20060;-59
2021/05/04 04:01:15;;;;;;;22.80;14.27;;;179.60;2252.80;;;;;;5026755;28;20387;-58
2021/05/04 04:03:41;;;;;;;20.50;14.48;;;179.70;2252.80;;;;;;5032403;28;20072;-58
2021/05/04 04:06:06;;;;;;;26.17;15.38;;;179.70;2252.80;;;;;;5036525;28;20468;-59
2021/05/04 04:08:32;;;;;;;24.45;15.27;;;179.80;2252.80;;;;;;5036145;28;20120;-58
2021/05/04 04:10:58;;;;;;;25.80;15.23;;;179.70;2252.80;;;;;;5017272;28;20044;-59
2021/05/04 04:13:23;;;;;;;21.65;14.48;;;179.70;2252.80;;;;;;5016555;28;20539;-58
2021/05/04 04:15:49;;;;;;;25.27;15.48;;;179.70;2252.80;;;;;;5016623;28;20030;-60
2021/05/04 04:18:15;;;;;;;23.65;15.43;;;179.80;2252.80;;;;;;5016463;28;20468;-60
2021/05/04 04:20:41;;;;;;;22.42;15.43;;;179.80;2252.80;;;;;;5017146;28;20033;-59
2021/05/04 04:23:06;;;;;;;25.27;15.35;;;179.90;2252.80;;;;;;5026283;28;20036;-59
2021/05/04 04:25:32;;;;;;;23.23;15.27;;;179.80;2252.80;;;;;;5036031;28;20022;-60
2021/05/04 04:27:58;;;;;;;25.67;15.60;;;179.90;2252.80;;;;;;5033091;28;20072;-58
2021/05/04 04:30:24;;;;;;;22.63;14.55;;;179.80;2252.80;;;;;;5034366;28;20123;-59
2021/05/04 04:32:51;;;;;;;23.85;15.07;;;179.90;2252.80;;;;;;5034594;28;20063;-59
2021/05/04 04:35:17;;;;;;;22.35;15.43;;;179.90;2252.80;;;;;;5036194;28;20025;-59
2021/05/04 04:37:43;;;;;;;20.95;13.77;;;179.80;2252.80;;;;;;5035775;28;20069;-58
2021/05/04 04:40:12;;;;;;;21.60;14.95;;;179.80;2252.80;;;;;;5035742;28;20049;-59
2021/05/04 04:42:38;;;;;;;22.38;14.25;;;180.00;2252.80;;;;;;5034204;28;20040;-58
2021/05/04 04:45:04;;;;;;;23.50;15.40;;;180.00;2252.80;;;;;;5026692;28;20460;-58
2021/05/04 04:47:31;;;;;;;22.45;14.63;;;180.10;2252.80;;;;;;5031497;28;20025;-58
2021/05/04 04:49:56;;;;;;;21.30;14.43;;;204.80;2252.80;;;;;;5035641;28;20025;-58
2021/05/04 04:52:22;;;;;;;24.70;16.50;;;204.90;2252.80;;;;;;5034815;28;20109;-58
2021/05/04 04:54:48;;;;;;;21.67;14.82;;;204.90;2252.80;;;;;;5033865;28;20049;-59
2021/05/04 04:57:13;;;;;;;25.50;16.75;;;205.00;2252.80;;;;;;5034164;28;20107;-61
2021/05/04 04:59:39;;;;;;;26.40;16.33;;;205.10;2252.80;;;;;;5034091;28;20105;-58
2021/05/04 05:02:05;;;;;;;24.40;16.70;;;205.20;2252.80;;;;;;5032348;28;21427;-58
2021/05/04 05:04:31;;;;;;;24.45;16.80;;;205.20;2252.80;;;;;;5033317;28;20032;-58
2021/05/04 05:06:57;;;;;;;23.30;16.10;;;205.30;2252.80;;;;;;5034225;28;20028;-60
2021/05/04 05:09:24;;;;;;;26.58;17.90;;;205.40;2252.80;;;;;;5033756;28;20116;-59
2021/05/04 05:11:50;;;;;;;26.63;17.27;;;205.50;2252.80;;;;;;5033824;28;20361;-59
2021/05/04 05:14:16;;;;;;;25.77;16.95;;;205.60;2252.80;;;;;;5034031;28;20075;-59
2021/05/04 05:16:42;;;;;;;27.38;17.77;;;230.40;2252.80;;;;;;5033808;28;20387;-58
2021/05/04 05:19:07;;;;;;;26.17;17.83;;;230.50;2252.80;;;;;;5033736;28;20383;-58
2021/05/04 05:21:36;;;;;;;25.55;16.85;;;230.60;2252.80;;;;;;5033819;28;20544;-58
2021/05/04 05:24:02;;;;;;;26.02;18.10;;;230.70;2252.80;;;;;;5034735;28;20030;-59
2021/05/04 05:26:29;;;;;;;24.55;16.60;;;230.90;2252.80;;;;;;5035137;28;20487;-59
2021/05/04 05:28:55;;;;;;;25.25;16.05;;;231.00;2252.80;;;;;;5034776;28;20045;-59
2021/05/04 05:31:28;;;;;;;23.15;16.08;;;231.10;2252.80;;;;;;5034812;28;20052;-59
2021/05/04 05:33:54;;;;;;;26.40;15.60;;;231.30;2252.80;;;;;;5033135;28;20055;-58
2021/05/04 05:36:20;;;;;;;27.52;16.45;;;256.10;2252.80;;;;;;5034760;28;20483;-59
2021/05/04 05:38:46;;;;;;;23.83;15.80;;;256.30;2252.80;;;;;;5034847;28;20033;-59
2021/05/04 05:41:12;;;;;;;24.50;16.03;;;256.40;2252.80;;;;;;5034751;28;20025;-58
2021/05/04 05:43:37;;;;;;;21.75;15.10;;;256.60;2252.80;;;;;;5034723;28;20040;-59
2021/05/04 05:46:03;;;;;;;24.77;15.35;;;256.70;2252.80;;;;;;5034924;28;20044;-58
2021/05/04 05:48:29;;;;;;;20.98;14.10;;;256.90;2252.80;;;;;;5034519;28;20049;-59
2021/05/04 05:50:55;;;;;;;23.07;13.90;;;281.70;2278.40;;;;;;5034629;28;20056;-59
2021/05/04 05:53:21;;;;;;;18.05;12.60;;;281.80;2201.60;;;;;;5034335;28;20052;-58
2021/05/04 05:55:47;;;;;;;17.92;12.77;;;281.90;2176.00;;;;;;5034617;28;20030;-59
2021/05/04 05:58:13;;;;;;;19.38;13.02;;;282.10;2176.00;;;;;;5034138;28;20041;-58
2021/05/04 06:00:39;;;;;;;17.15;12.48;;;282.10;2099.20;;;;;;5034378;28;20383;-59
2021/05/04 06:03:05;;;;;;;20.40;13.68;;;282.30;2073.60;;;;;;5034496;28;20036;-63
2021/05/04 06:05:32;;;;;;;22.58;13.05;;;282.40;2124.80;;;;;;5034334;28;20026;-60
2021/05/04 06:07:59;;;;;;;18.60;11.77;;;282.50;2073.60;;;;;;5032846;28;20152;-59
2021/05/04 06:10:25;;;;;;;23.90;12.65;;;307.20;2073.60;;;;;;5033860;28;20029;-58
2021/05/04 06:13:02;;;;;;;21.33;13.60;;;307.30;2073.60;;;;;;5034565;28;20387;-59
2021/05/04 06:15:29;;;;;;;15.25;10.68;;;307.50;2073.60;;;;;;5034080;28;20032;-60
2021/05/04 06:17:55;;;;;;;18.98;11.63;;;307.70;2048.00;;;;;;5034138;28;20060;-59
2021/05/04 06:20:21;;;;;;;14.05;10.15;;;307.80;1996.80;;;;;;5034170;28;20028;-61
2021/05/04 06:22:47;;;;;;;15.07;9.20;;;308.00;1945.60;;;;;;5033708;28;20025;-58
2021/05/04 06:25:13;;;;;;;14.55;9.30;;;308.10;1792.00;;;;;;5033807;28;20025;-58
2021/05/04 06:27:39;;;;;;;14.05;9.13;;;308.10;1792.00;;;;;;5033772;28;20486;-59
2021/05/04 06:30:08;;;;;;;15.52;9.30;;;332.80;1792.00;;;;;;5031743;28;20125;-58
2021/05/04 06:32:34;;;;;;;16.60;8.90;;;332.90;1817.60;;;;;;5030540;28;20033;-58
2021/05/04 06:35:00;;;;;;;15.50;8.85;;;333.00;1792.00;;;;;;5030821;28;20026;-59
2021/05/04 06:37:26;;;;;;;18.13;9.45;;;333.10;1766.40;;;;;;5031226;28;20463;-62
2021/05/04 06:39:51;;;;;;;15.88;9.50;;;333.20;1766.40;;;;;;5033109;28;20049;-63
2021/05/04 06:42:17;;;;;;;13.50;9.05;;;333.30;1740.80;;;;;;5030566;28;20079;-60
2021/05/04 06:44:43;;;;;;;16.95;10.05;;;333.50;1715.20;;;;;;5033292;28;20028;-61
2021/05/04 06:47:09;;;;;;;14.35;9.20;;;333.60;1715.20;;;;;;5033440;28;20471;-58
2021/05/04 06:49:36;;;;;;;12.27;8.80;;;358.40;1689.60;;;;;;5033197;28;20049;-60
2021/05/04 06:52:02;;;;;;;13.70;9.02;;;358.50;1664.00;;;;;;5033146;28;20391;-64
2021/05/04 06:54:28;;;;;;;13.93;9.18;;;358.70;1664.00;;;;;;5032784;28;20064;-62
2021/05/04 06:56:53;;;;;;;13.15;8.88;;;358.80;1664.00;;;;;;5031522;28;20463;-65
2021/05/04 06:59:19;;;;;;;12.80;8.40;;;358.90;1638.40;;;;;;5030197;28;20033;-63
2021/05/04 07:01:45;;;;;;;12.30;8.50;;;358.90;1587.20;;;;;;5030549;28;20486;-60
2021/05/04 07:04:13;;;;;;;11.25;8.10;;;359.00;1587.20;;;;;;5033150;28;20025;-65
2021/05/04 07:06:39;;;;;;;12.07;7.13;;;359.10;1561.60;;;;;;5030218;28;20052;-63
2021/05/04 07:09:05;;;;;;;11.63;6.85;;;359.20;1536.00;;;;;;5037641;28;20025;-65
2021/05/04 07:11:33;;;;;;;12.70;7.10;;;359.30;1536.00;;;;;;5037061;28;20025;-62
2021/05/04 07:14:01;;;;;;;12.75;7.10;;;384.20;1459.20;;;;;;5037656;28;20379;-60
2021/05/04 07:16:26;;;;;;;11.82;6.60;;;384.40;1484.80;;;;;;5037341;28;20429;-59
2021/05/04 07:18:52;;;;;;;11.65;6.47;;;384.50;1433.60;;;;;;5037092;28;20037;-65
2021/05/04 07:21:18;;;;;;;9.13;5.07;;;384.60;1408.00;;;;;;5037607;28;20025;-59
2021/05/04 07:23:44;;;;;;;9.18;4.72;;;384.80;1356.80;;;;;;5036998;28;20395;-60
2021/05/04 07:26:10;;;;;;;8.68;5.00;;;409.60;1331.20;;;;;;5037260;28;20021;-59
2021/05/04 07:28:36;;;;;;;7.72;4.32;;;409.80;1331.20;;;;;;5037244;28;20026;-62
2021/05/04 07:31:02;;;;;;;7.53;4.07;;;409.90;1305.60;;;;;;5036960;28;20110;-62
2021/05/04 07:33:27;;;;;;;8.45;4.10;;;410.10;1305.60;;;;;;5036478;28;20364;-60
2021/05/04 07:35:54;;;;;;;9.00;4.35;;;410.20;1203.20;;;;;;5037147;28;20108;-62
2021/05/04 07:38:20;;;;;;;9.55;4.80;;;410.30;1280.00;;;;;;5036982;28;20070;-62
2021/05/04 07:40:45;;;;;;;8.82;4.90;;;410.50;1305.60;;;;;;5036994;28;20017;-66
2021/05/04 07:43:12;;;;;;;8.50;4.80;;;435.30;1280.00;;;;;;5035741;28;20056;-65
2021/05/04 07:45:38;;;;;;;10.45;4.40;;;410.50;1203.20;;;;;;5036736;28;20025;-64
2021/05/04 07:48:05;;;;;;;8.98;4.55;;;435.20;1203.20;;;;;;5036835;28;20039;-62
2021/05/04 07:50:33;;;;;;;8.05;4.70;;;435.30;1152.00;;;;;;5036579;28;20021;-62
2021/05/04 07:52:59;;;;;;;8.30;4.13;;;435.40;1152.00;;;;;;5036393;28;20030;-64
2021/05/04 07:55:25;;;;;;;8.10;4.18;;;435.60;1100.80;;;;;;5035404;28;20091;-63
2021/05/04 07:57:51;;;;;;;9.40;4.60;;;435.70;1126.40;;;;;;5036585;28;20041;-64
2021/05/04 08:00:17;;;;;;;9.07;4.70;;;435.70;1100.80;;;;;;5035551;28;20021;-61
2021/05/04 08:02:43;;;;;;;8.85;4.65;;;435.80;1075.20;;;;;;5027260;28;20037;-63
2021/05/04 08:05:09;;;;;;;8.85;4.60;;;435.80;1152.00;;;;;;5016909;28;20018;-64
2021/05/04 08:07:36;;;;;;;7.60;4.32;;;435.80;1126.40;;;;;;5016378;28;20030;-64
2021/05/04 08:10:03;;;;;;;8.07;4.53;;;436.10;1100.80;;;;;;5019864;28;20379;-63
2021/05/04 08:12:28;;;;;;;8.93;4.78;;;460.80;1126.40;;;;;;5031798;28;20023;-69
2021/05/04 08:14:54;;;;;;;8.68;4.30;;;460.90;1100.80;;;;;;5023436;28;20392;-68
2021/05/04 08:17:24;;;;;;;8.15;4.07;;;461.10;1075.20;;;;;;5029415;28;20117;-70
2021/05/04 08:19:49;;;;;;;8.48;4.40;;;461.30;1049.60;;;;;;5027121;28;20046;-66
2021/05/04 08:22:15;;;;;;;8.65;4.45;;;461.30;1075.20;;;;;;5018217;28;20057;-63
2021/05/04 08:24:41;;;;;;;7.40;4.10;;;461.40;1100.80;;;;;;5016639;28;20423;-63
2021/05/04 08:27:07;;;;;;;10.15;4.40;;;461.50;1049.60;;;;;;5016217;28;20030;-65
2021/05/04 08:29:34;;;;;;;8.23;3.67;;;461.60;1024.00;;;;;;5015624;28;20093;-62
2021/05/04 08:32:02;;;;;;;7.78;4.40;;;461.70;1049.60;;;;;;5018923;28;20041;-68
2021/05/04 08:34:32;;;;;;;7.75;4.05;;;461.70;1024.00;;;;;;5035201;28;20022;-64
2021/05/04 08:36:58;;;;;;;7.43;4.00;;;486.40;1024.00;;;;;;5034386;28;20438;-67
2021/05/04 08:39:24;;;;;;;7.75;3.50;;;486.50;1075.20;;;;;;5025111;28;20387;-64
2021/05/04 08:41:50;;;;;;;7.72;3.38;;;486.50;972.80;;;;;;5021363;28;20022;-64
2021/05/04 08:44:18;;;;;;;6.50;3.38;;;486.50;1024.00;;;;;;5015837;28;20032;-70
2021/05/04 08:46:45;;;;;;;5.57;3.20;;;486.60;1024.00;;;;;;5015677;28;20026;-68
2021/05/04 08:49:16;;;;;;;6.57;3.75;;;486.70;1049.60;;;;;;5029609;28;20029;-65
2021/05/04 08:51:51;;;;;;;8.43;3.70;;;486.70;1049.60;;;;;;5023658;28;20022;-70
2021/05/04 08:54:17;;;;;;;7.38;3.67;;;486.80;972.80;;;;;;5032028;28;20025;-66
2021/05/04 08:56:44;;;;;;;6.28;3.67;;;486.90;972.80;;;;;;5032476;28;20391;-67
2021/05/04 08:59:10;;;;;;;7.65;3.67;;;487.20;947.20;;;;;;5033911;28;20091;-68
2021/05/04 09:01:37;;;;;;;7.75;4.18;;;487.10;972.80;;;;;;5031396;28;20037;-68
2021/05/04 09:04:09;;;;;;;7.20;3.20;;;487.20;947.20;;;;;;5031663;28;20105;-70
2021/05/04 09:06:41;;;;;;;5.53;3.13;;;487.20;998.40;;;;;;5018889;28;20014;-67
2021/05/04 09:09:17;;;;;;;5.88;3.22;;;487.30;972.80;;;;;;5026490;28;20036;-71
2021/05/04 09:22:41;;;;;;;6.05;3.00;;;512.70;921.60;;;;;;5033719;28;20025;-71
2021/05/04 09:25:34;;;;;;;4.95;3.08;;;512.90;896.00;;;;;;5033125;28;20557;-71
2021/05/04 09:28:03;;;;;;;6.70;3.53;;;512.90;896.00;;;;;;5033127;28;20056;-70
2021/05/04 09:30:30;;;;;;;5.97;3.50;;;512.80;896.00;;;;;;5032768;28;20053;-70
2021/05/04 09:32:56;;;;;;;6.35;3.10;;;537.60;896.00;;;;;;5032107;28;20040;-74
2021/05/04 09:35:29;;;;;;;6.40;3.28;;;537.80;921.60;;;;;;5032899;28;20418;-71
2021/05/04 09:38:08;;;;;;;5.72;3.30;;;512.90;921.60;;;;;;5028014;28;20037;-66
2021/05/04 09:40:39;;;;;;;7.93;3.40;;;537.60;947.20;;;;;;5029146;28;20079;-67
2021/05/04 09:43:15;;;;;;;6.53;3.33;;;537.60;921.60;;;;;;5031534;28;20076;-71
2021/05/04 09:45:43;;;;;;;5.47;2.80;;;537.60;921.60;;;;;;5030013;28;20052;-69
2021/05/04 09:48:32;;;;;;;5.82;2.88;;;538.00;921.60;;;;;;5031896;28;20025;-67
2021/05/04 09:51:01;;;;;;;5.53;3.20;;;538.00;870.40;;;;;;5025869;28;20060;-69
2021/05/04 09:53:48;;;;;;;6.60;3.63;;;537.90;921.60;;;;;;5021468;28;20049;-65
2021/05/04 09:56:15;;;;;;;6.40;3.20;;;538.00;896.00;;;;;;5019457;28;20041;-69
2021/05/04 09:58:50;;;;;;;5.63;3.78;;;537.90;921.60;;;;;;5026008;28;20038;-68
2021/05/04 10:01:18;;;;;;;4.25;3.20;;;538.00;870.40;;;;;;5027617;28;20022;-68
2021/05/04 10:03:45;;;;;;;9.27;3.58;;;538.10;896.00;;;;;;5024487;28;20030;-73
2021/05/04 10:06:12;;;;;;;5.72;3.67;;;538.30;896.00;;;;;;5011201;28;20030;-65
2021/05/04 10:08:39;;;;;;;7.20;3.55;;;538.40;870.40;;;;;;5027904;28;20029;-70
2021/05/04 10:11:09;;;;;;;10.32;3.65;;;538.40;844.80;;;;;;5029088;28;20076;-63
2021/05/04 10:13:36;;;;;;;7.47;3.70;;;538.40;870.40;;;;;;5028099;28;20103;-67
2021/05/04 10:16:03;;;;;;;4.75;3.58;;;538.30;870.40;;;;;;5028809;28;20038;-69
2021/05/04 10:18:30;;;;;;;6.60;3.33;;;563.20;896.00;;;;;;5030084;28;20045;-62
2021/05/04 10:20:58;;;;;;;5.30;3.28;;;563.40;896.00;;;;;;5029968;28;20037;-67
2021/05/04 10:23:25;;;;;;;5.90;3.65;;;563.40;870.40;;;;;;5030368;28;20042;-70
2021/05/04 10:25:53;;;;;;;7.95;3.15;;;563.70;844.80;;;;;;5031166;28;20034;-69
2021/05/04 10:28:21;;;;;;;4.82;3.30;;;563.90;870.40;;;;;;5024487;28;20120;-71
2021/05/04 10:30:47;;;;;;;7.25;3.10;;;564.00;870.40;;;;;;5033190;28;20042;-67
2021/05/04 10:33:34;;;;;;;5.10;3.35;;;564.00;819.20;;;;;;5033432;28;20134;-69
2021/05/04 10:36:01;;;;;;;5.03;3.30;;;564.00;870.40;;;;;;5032076;28;20113;-62
2021/05/04 10:38:47;;;;;;;7.72;3.45;;;588.80;819.20;;;;;;5033644;28;20151;-62
2021/05/04 10:41:13;;;;;;;5.65;3.58;;;564.10;844.80;;;;;;5030904;28;20120;-66
2021/05/04 10:43:41;;;;;;;5.63;3.10;;;564.00;819.20;;;;;;5032076;28;20104;-65
2021/05/04 10:46:11;;;;;;;7.28;3.97;;;564.10;819.20;;;;;;5033263;28;20022;-63
2021/05/04 10:48:37;;;;;;;5.97;3.38;;;564.00;896.00;;;;;;5033641;28;20026;-62
2021/05/04 10:51:10;;;;;;;6.20;3.47;;;564.10;844.80;;;;;;5033372;28;20372;-68
2021/05/04 10:53:56;;;;;;;5.90;3.33;;;589.00;819.20;;;;;;5030249;28;20167;-63
2021/05/04 10:56:45;;;;;;;6.38;2.85;;;588.90;793.60;;;;;;5033225;28;20475;-67
2021/05/04 10:59:32;;;;;;;3.95;2.40;;;589.00;793.60;;;;;;5033006;28;20032;-66
2021/05/04 11:02:09;;;;;;;4.65;2.60;;;589.20;742.40;;;;;;5010679;28;20511;-66
2021/05/04 11:04:43;;;;;;;7.38;3.47;;;589.30;742.40;;;;;;5011227;28;20076;-68
2021/05/04 11:07:09;;;;;;;8.07;4.85;;;589.40;742.40;;;;;;5011132;28;20038;-67
2021/05/04 11:09:39;;;;;;;5.68;3.63;;;589.30;768.00;;;;;;5011509;28;20041;-69
2021/05/04 11:12:06;;;;;;;6.47;3.22;;;589.30;768.00;;;;;;5010821;28;20026;-65
2021/05/04 11:14:35;;;;;;;5.75;3.72;;;589.30;742.40;;;;;;5010665;28;20025;-62
2021/05/04 11:17:03;;;;;;;6.03;3.63;;;589.50;768.00;;;;;;5009320;28;20026;-70
2021/05/04 11:19:41;;;;;;;;;;;;;;;;;;;;;
2021/05/04 11:22:00;;;;;;;5.45;3.50;;;614.50;742.40;;;;;;5009651;28;20047;-63
2021/05/04 11:24:34;;;;;;;8.23;3.88;;;589.70;742.40;;;;;;5009665;28;20026;-65
2021/05/04 11:27:04;;;;;;;6.00;3.40;;;589.30;716.80;;;;;;5008474;28;20495;-72
2021/05/04 11:29:32;;;;;;;5.50;2.88;;;589.50;742.40;;;;;;5007990;28;20022;-69
2021/05/04 11:32:09;;;;;;;6.40;3.20;;;589.50;716.80;;;;;;5007662;28;20046;-66
2021/05/04 11:34:46;;;;;;;3.90;2.60;;;589.40;742.40;;;;;;5009472;28;20490;-64
2021/05/04 11:37:36;;;;;;;4.50;2.40;;;589.40;716.80;;;;;;5010446;28;20077;-66
2021/05/04 11:40:13;;;;;;;4.35;2.75;;;589.70;665.60;;;;;;5028422;28;20041;-71
2021/05/04 11:42:40;;;;;;;6.97;3.05;;;614.70;716.80;;;;;;5031174;28;20033;-67
2021/05/04 11:45:10;;;;;;;7.00;3.00;;;614.90;742.40;;;;;;5030822;28;20052;-64
2021/05/04 11:47:41;;;;;;;3.58;2.50;;;615.10;716.80;;;;;;5028271;28;20105;-67
2021/05/04 11:50:22;;;;;;;3.80;2.45;;;640.20;640.00;;;;;;5045951;28;20099;-63
2021/05/04 11:52:51;;;;;;;5.78;2.72;;;614.80;665.60;;;;;;5030817;28;20033;-70
2021/05/04 11:55:24;;;;;;;3.47;2.58;;;614.80;716.80;;;;;;5025576;28;20018;-63
2021/05/04 11:58:15;;;;;;;5.65;3.30;;;614.70;742.40;;;;;;5034287;28;20483;-63
2021/05/04 12:00:48;;;;;;;3.65;2.40;;;614.90;716.80;;;;;;5032937;28;20018;-68
2021/05/04 12:03:16;;;;;;;4.88;2.70;;;614.90;716.80;;;;;;5033337;28;20091;-63
2021/05/04 12:05:50;;;;;;;3.88;2.40;;;614.70;691.20;;;;;;5034398;28;20025;-67
2021/05/04 12:08:16;;;;;;;4.65;2.28;;;614.80;665.60;;;;;;5034659;28;20029;-66
2021/05/04 12:10:49;;;;;;;3.60;2.40;;;614.70;665.60;;;;;;5027576;28;20100;-66
2021/05/04 12:13:25;;;;;;;3.10;2.20;;;614.70;691.20;;;;;;5032021;28;20471;-70
2021/05/04 12:16:04;;;;;;;3.30;2.22;;;614.80;665.60;;;;;;5025962;28;20387;-68
2021/05/04 12:18:32;;;;;;;4.38;2.60;;;614.90;640.00;;;;;;5034455;28;20053;-66
2021/05/04 12:21:04;;;;;;;4.10;2.50;;;614.70;640.00;;;;;;5034938;28;20112;-66
2021/05/04 12:23:31;;;;;;;5.55;2.95;;;614.70;665.60;;;;;;5034597;28;20024;-67